Time;durP1;ratioP1;P1;durP2;ratioP2;P2;SDS_P1;SDS_P2;PMS_P1;PMS_P2;Temp;Humidity;BMP_temperature;BMP_pressure;BME280_temperature;BME280_humidity;BME280_pressure;Samples;Min_cycle;Max_cycle;Signal;HPM_P1;HPM_P2
2021/08/31 00:01:03;;;;;;;;;;;15.30;1.00;;;;;;5088551;28;19908;-62
2021/08/31 00:03:29;;;;;;;;;;;15.30;1.00;;;;;;5089013;28;19973;-63
2021/08/31 00:05:54;;;;;;;;;;;15.30;1.00;;;;;;5088534;28;19959;-62
2021/08/31 00:08:23;;;;;;;;;;;15.30;1.00;;;;;;5089377;28;19915;-63
2021/08/31 00:10:48;;;;;;;;;;;15.30;1.00;;;;;;5089473;28;19920;-62
2021/08/31 00:13:14;;;;;;;;;;;15.30;1.00;;;;;;5089503;28;19912;-63
2021/08/31 00:15:39;;;;;;;;;;;15.30;1.00;;;;;;5090144;28;20002;-63
2021/08/31 00:18:05;;;;;;;;;;;15.20;1.00;;;;;;5091839;28;19908;-63
2021/08/31 00:20:30;;;;;;;;;;;15.20;1.00;;;;;;5086577;23;19977;-62
2021/08/31 00:22:56;;;;;;;;;;;15.20;1.00;;;;;;5070722;28;19965;-63
2021/08/31 00:25:22;;;;;;;;;;;15.20;1.00;;;;;;5071048;28;20082;-62
2021/08/31 00:27:47;;;;;;;;;;;15.20;1.00;;;;;;5071302;28;19931;-61
2021/08/31 00:30:13;;;;;;;;;;;15.10;1.00;;;;;;5070390;28;20001;-64
2021/08/31 00:32:39;;;;;;;;;;;15.10;1.00;;;;;;5071256;28;20266;-63
2021/08/31 00:35:04;;;;;;;;;;;15.20;1.00;;;;;;5070566;28;19915;-62
2021/08/31 00:37:30;;;;;;;;;;;15.20;1.00;;;;;;5071153;28;19977;-63
2021/08/31 00:39:55;;;;;;;;;;;15.20;1.00;;;;;;5071580;28;19924;-63
2021/08/31 00:42:21;;;;;;;;;;;15.20;1.00;;;;;;5070940;28;19912;-62
2021/08/31 00:44:47;;;;;;;;;;;15.20;1.00;;;;;;5070661;28;20018;-62
2021/08/31 00:47:12;;;;;;;;;;;15.20;1.00;;;;;;5074314;28;19908;-61
2021/08/31 00:49:38;;;;;;;;;;;15.20;1.00;;;;;;5073669;28;20114;-62
2021/08/31 00:52:04;;;;;;;;;;;15.20;1.00;;;;;;5074128;28;19912;-62
2021/08/31 00:54:30;;;;;;;;;;;15.20;1.00;;;;;;5056835;28;20003;-63
2021/08/31 00:57:03;;;;;;;;;;;15.20;1.00;;;;;;5075860;28;19931;-63
2021/08/31 00:59:30;;;;;;;;;;;15.20;1.00;;;;;;5076075;28;20013;-63
2021/08/31 01:01:56;;;;;;;;;;;15.20;1.00;;;;;;5095256;28;19948;-61
2021/08/31 01:04:25;;;;;;;;;;;15.20;1.00;;;;;;5093776;28;20356;-63
2021/08/31 01:06:52;;;;;;;;;;;15.10;1.00;;;;;;5093060;28;19912;-63
2021/08/31 01:09:18;;;;;;;;;;;15.10;1.00;;;;;;5093389;28;19971;-63
2021/08/31 01:11:45;;;;;;;;;;;15.10;1.00;;;;;;5091915;28;19912;-63
2021/08/31 01:14:11;;;;;;;;;;;15.10;1.00;;;;;;5092837;28;20436;-63
2021/08/31 01:16:36;;;;;;;;;;;15.00;1.00;;;;;;5092473;28;19912;-61
2021/08/31 01:19:02;;;;;;;;;;;15.00;1.00;;;;;;5094352;28;19916;-63
2021/08/31 01:21:28;;;;;;;;;;;15.00;1.00;;;;;;5093950;28;20362;-63
2021/08/31 01:23:54;;;;;;;;;;;14.90;1.00;;;;;;5087969;28;19962;-63
2021/08/31 01:26:20;;;;;;;;;;;14.90;1.00;;;;;;5074853;28;19982;-63
2021/08/31 01:28:45;;;;;;;;;;;14.90;1.00;;;;;;5074003;28;19923;-61
2021/08/31 01:31:11;;;;;;;;;;;14.90;1.00;;;;;;5074190;28;19912;-62
2021/08/31 01:33:36;;;;;;;;;;;14.90;1.00;;;;;;5073420;28;19919;-62
2021/08/31 01:36:17;;;;;;;;;;;14.80;1.00;;;;;;5071750;28;20000;-62
2021/08/31 01:38:43;;;;;;;;;;;14.80;1.00;;;;;;5074342;28;19908;-63
2021/08/31 01:41:08;;;;;;;;;;;14.80;1.00;;;;;;5074034;28;19975;-63
2021/08/31 01:43:34;;;;;;;;;;;14.70;1.00;;;;;;5074021;28;19908;-63
2021/08/31 01:45:59;;;;;;;;;;;14.70;1.00;;;;;;5074378;28;19935;-62
2021/08/31 01:48:25;;;;;;;;;;;14.70;1.00;;;;;;5075052;28;19912;-63
2021/08/31 01:50:50;;;;;;;;;;;14.60;1.00;;;;;;5071140;28;20011;-63
2021/08/31 01:53:16;;;;;;;;;;;14.60;1.00;;;;;;5071262;28;19913;-62
2021/08/31 01:55:41;;;;;;;;;;;14.60;1.00;;;;;;5073871;28;19908;-63
2021/08/31 01:58:07;;;;;;;;;;;14.60;1.00;;;;;;5074114;28;19979;-62
2021/08/31 02:00:33;;;;;;;;;;;14.60;1.00;;;;;;5071527;28;19928;-63
2021/08/31 02:02:58;;;;;;;;;;;14.70;1.00;;;;;;5072304;28;19979;-63
2021/08/31 02:05:25;;;;;;;;;;;14.70;1.00;;;;;;5073408;28;19962;-63
2021/08/31 02:07:50;;;;;;;;;;;14.70;1.00;;;;;;5073794;28;19967;-63
2021/08/31 02:10:16;;;;;;;;;;;14.80;1.00;;;;;;5074128;28;19908;-63
2021/08/31 02:12:41;;;;;;;;;;;14.80;1.00;;;;;;5073611;28;19978;-63
2021/08/31 02:15:07;;;;;;;;;;;14.80;1.00;;;;;;5073210;28;20318;-63
2021/08/31 02:17:32;;;;;;;;;;;14.80;1.00;;;;;;5073488;28;19915;-63
2021/08/31 02:19:58;;;;;;;;;;;14.80;1.00;;;;;;5072080;28;19917;-63
2021/08/31 02:22:23;;;;;;;;;;;14.80;1.00;;;;;;5073013;28;19912;-63
2021/08/31 02:24:49;;;;;;;;;;;14.80;1.00;;;;;;5071742;28;20019;-63
2021/08/31 02:27:14;;;;;;;;;;;14.80;1.00;;;;;;5072586;28;19913;-63
2021/08/31 02:29:40;;;;;;;;;;;14.80;1.00;;;;;;5070167;28;19984;-63
2021/08/31 02:32:05;;;;;;;;;;;14.80;1.00;;;;;;5071124;28;20027;-62
2021/08/31 02:34:32;;;;;;;;;;;14.80;1.00;;;;;;5070075;28;20363;-63
2021/08/31 02:36:57;;;;;;;;;;;14.80;1.00;;;;;;5070632;28;20333;-62
2021/08/31 02:39:23;;;;;;;;;;;14.90;1.00;;;;;;5070158;28;19913;-61
2021/08/31 02:41:48;;;;;;;;;;;14.90;1.00;;;;;;5070584;28;19995;-63
2021/08/31 02:44:14;;;;;;;;;;;14.90;1.00;;;;;;5071092;28;20419;-62
2021/08/31 02:46:39;;;;;;;;;;;14.90;1.00;;;;;;5072108;28;19913;-62
2021/08/31 02:49:05;;;;;;;;;;;14.90;1.00;;;;;;5072612;28;19912;-62
2021/08/31 02:51:30;;;;;;;;;;;14.90;1.00;;;;;;5072004;28;19917;-62
2021/08/31 02:53:56;;;;;;;;;;;14.90;1.00;;;;;;5071164;28;19921;-61
2021/08/31 02:56:21;;;;;;;;;;;14.90;1.00;;;;;;5072206;28;19908;-63
2021/08/31 02:58:47;;;;;;;;;;;14.90;1.00;;;;;;5072316;28;20428;-62
2021/08/31 03:01:29;;;;;;;;;;;14.90;1.00;;;;;;5088383;28;19908;-61
2021/08/31 03:03:55;;;;;;;;;;;14.90;1.00;;;;;;5092029;28;20372;-62
2021/08/31 03:06:20;;;;;;;;;;;14.90;1.00;;;;;;5090931;28;19912;-62
2021/08/31 03:08:46;;;;;;;;;;;14.90;1.00;;;;;;5091670;28;19908;-62
2021/08/31 03:11:11;;;;;;;;;;;14.80;1.00;;;;;;5091586;28;20007;-63
2021/08/31 03:13:37;;;;;;;;;;;14.80;1.00;;;;;;5090181;28;20367;-61
2021/08/31 03:16:03;;;;;;;;;;;14.70;1.00;;;;;;5071235;28;20007;-62
2021/08/31 03:18:28;;;;;;;;;;;14.70;1.00;;;;;;5070159;28;19916;-62
2021/08/31 03:20:54;;;;;;;;;;;14.70;1.00;;;;;;5069219;28;19924;-62
2021/08/31 03:23:19;;;;;;;;;;;14.70;1.00;;;;;;5069707;28;19916;-62
2021/08/31 03:25:45;;;;;;;;;;;14.70;1.00;;;;;;5068924;28;19916;-62
2021/08/31 03:28:10;;;;;;;;;;;14.80;1.00;;;;;;5069518;28;19951;-63
2021/08/31 03:30:35;;;;;;;;;;;14.80;1.00;;;;;;5069533;28;19912;-62
2021/08/31 03:33:01;;;;;;;;;;;14.80;1.00;;;;;;5069211;28;19913;-62
2021/08/31 03:35:27;;;;;;;;;;;14.80;1.00;;;;;;5069525;28;19909;-62
2021/08/31 03:37:53;;;;;;;;;;;14.80;1.00;;;;;;5070700;28;19951;-62
2021/08/31 03:40:19;;;;;;;;;;;14.80;1.00;;;;;;5069919;28;20297;-62
2021/08/31 03:42:46;;;;;;;;;;;14.80;1.00;;;;;;5069850;28;19912;-62
2021/08/31 03:45:12;;;;;;;;;;;14.80;1.00;;;;;;5070564;28;19915;-60
2021/08/31 03:47:37;;;;;;;;;;;14.70;1.00;;;;;;5070565;28;20284;-62
2021/08/31 03:50:03;;;;;;;;;;;14.60;1.00;;;;;;5069464;28;19909;-62
2021/08/31 03:52:28;;;;;;;;;;;14.60;1.00;;;;;;5070655;28;19915;-63
2021/08/31 03:54:54;;;;;;;;;;;14.50;1.00;;;;;;5071432;28;19966;-63
2021/08/31 03:57:19;;;;;;;;;;;14.40;1.00;;;;;;5071704;28;19912;-62
2021/08/31 03:59:45;;;;;;;;;;;14.30;1.00;;;;;;5075233;28;19927;-63
2021/08/31 04:02:10;;;;;;;;;;;14.30;1.00;;;;;;5090772;28;20292;-62
2021/08/31 04:04:36;;;;;;;;;;;14.30;1.00;;;;;;5072948;28;19908;-62
2021/08/31 04:07:01;;;;;;;;;;;14.30;1.00;;;;;;5092438;28;19912;-62
2021/08/31 04:09:27;;;;;;;;;;;14.20;1.00;;;;;;5092342;28;19908;-63
2021/08/31 04:11:52;;;;;;;;;;;14.20;1.00;;;;;;5091144;28;20346;-63
2021/08/31 04:14:18;;;;;;;;;;;14.20;1.00;;;;;;5089997;28;19915;-63
2021/08/31 04:16:43;;;;;;;;;;;14.20;1.00;;;;;;5092257;28;19991;-63
2021/08/31 04:19:09;;;;;;;;;;;14.10;1.00;;;;;;5091020;28;19965;-63
2021/08/31 04:21:34;;;;;;;;;;;14.10;1.00;;;;;;5093801;28;19959;-61
2021/08/31 04:24:00;;;;;;;;;;;14.20;1.00;;;;;;5086080;28;19913;-63
2021/08/31 04:26:25;;;;;;;;;;;14.10;1.00;;;;;;5072516;28;20619;-62
2021/08/31 04:28:51;;;;;;;;;;;14.10;1.00;;;;;;5073930;28;19908;-63
2021/08/31 04:31:18;;;;;;;;;;;14.20;1.00;;;;;;5074086;28;20025;-63
2021/08/31 04:33:44;;;;;;;;;;;14.20;1.00;;;;;;5072551;28;19909;-63
2021/08/31 04:36:09;;;;;;;;;;;14.30;1.00;;;;;;5073387;28;19912;-63
2021/08/31 04:38:35;;;;;;;;;;;14.30;1.00;;;;;;5074988;28;20007;-63
2021/08/31 04:41:00;;;;;;;;;;;14.30;1.00;;;;;;5074358;28;19962;-63
2021/08/31 04:43:27;;;;;;;;;;;14.30;1.00;;;;;;5056421;28;19909;-63
2021/08/31 04:45:52;;;;;;;;;;;14.40;1.00;;;;;;5073572;28;19912;-62
2021/08/31 04:48:18;;;;;;;;;;;14.40;1.00;;;;;;5074369;28;19915;-61
2021/08/31 04:50:44;;;;;;;;;;;14.50;1.00;;;;;;5073155;28;19936;-62
2021/08/31 04:53:09;;;;;;;;;;;14.50;1.00;;;;;;5074561;28;19909;-63
2021/08/31 04:55:35;;;;;;;;;;;14.50;1.00;;;;;;5073798;28;20373;-63
2021/08/31 04:58:01;;;;;;;;;;;14.50;1.00;;;;;;5074013;28;19969;-65
2021/08/31 05:00:26;;;;;;;;;;;14.60;1.00;;;;;;5076540;28;19940;-64
2021/08/31 05:02:52;;;;;;;;;;;14.60;1.00;;;;;;5070811;28;19979;-65
2021/08/31 05:05:18;;;;;;;;;;;14.70;1.00;;;;;;5071194;28;19913;-64
2021/08/31 05:07:44;;;;;;;;;;;14.70;1.00;;;;;;5072532;28;19908;-63
2021/08/31 05:10:09;;;;;;;;;;;14.70;1.00;;;;;;5070765;28;19962;-64
2021/08/31 05:12:35;;;;;;;;;;;14.80;1.00;;;;;;5070039;28;19912;-64
2021/08/31 05:15:01;;;;;;;;;;;14.80;1.00;;;;;;5069519;28;19912;-63
2021/08/31 05:17:27;;;;;;;;;;;14.90;1.00;;;;;;5071695;28;19912;-63
2021/08/31 05:19:52;;;;;;;;;;;14.90;1.00;;;;;;5070872;28;19920;-65
2021/08/31 05:22:17;;;;;;;;;;;15.00;1.00;;;;;;5070180;28;19918;-61
2021/08/31 05:24:46;;;;;;;;;;;15.00;1.00;;;;;;5071667;28;20302;-60
2021/08/31 05:27:11;;;;;;;;;;;14.90;1.00;;;;;;5071680;28;19915;-61
2021/08/31 05:29:37;;;;;;;;;;;15.00;1.00;;;;;;5071203;28;20281;-62
2021/08/31 05:32:03;;;;;;;;;;;15.00;1.00;;;;;;5071223;28;20320;-61
2021/08/31 05:34:29;;;;;;;;;;;15.00;1.00;;;;;;5067927;28;19917;-62
2021/08/31 05:36:54;;;;;;;;;;;15.00;1.00;;;;;;5071471;28;19913;-62
2021/08/31 05:39:20;;;;;;;;;;;15.10;1.00;;;;;;5068184;28;19992;-62
2021/08/31 05:41:45;;;;;;;;;;;15.10;1.00;;;;;;5069449;28;20388;-62
2021/08/31 05:44:11;;;;;;;;;;;15.20;1.00;;;;;;5070828;28;20470;-63
2021/08/31 05:46:36;;;;;;;;;;;15.20;1.00;;;;;;5071146;28;19909;-62
2021/08/31 05:49:02;;;;;;;;;;;15.20;1.00;;;;;;5071310;28;19908;-64
2021/08/31 05:51:27;;;;;;;;;;;15.20;1.00;;;;;;5071006;28;19917;-63
2021/08/31 05:53:54;;;;;;;;;;;15.40;1.00;;;;;;5050551;28;20292;-62
2021/08/31 05:56:19;;;;;;;;;;;15.40;1.00;;;;;;5069578;28;20392;-61
2021/08/31 05:58:45;;;;;;;;;;;15.40;1.00;;;;;;5033400;28;19908;-62
2021/08/31 06:01:10;;;;;;;;;;;15.50;1.00;;;;;;5085341;28;19916;-62
2021/08/31 06:03:36;;;;;;;;;;;15.50;1.00;;;;;;5088297;28;20284;-62
2021/08/31 06:06:01;;;;;;;;;;;15.50;1.00;;;;;;5089875;28;19908;-62
2021/08/31 06:08:30;;;;;;;;;;;15.60;1.00;;;;;;5091001;28;19961;-62
2021/08/31 06:10:56;;;;;;;;;;;15.70;1.00;;;;;;5090907;28;19908;-62
2021/08/31 06:13:21;;;;;;;;;;;15.80;1.00;;;;;;5089572;28;19920;-62
2021/08/31 06:15:47;;;;;;;;;;;15.90;1.00;;;;;;5089794;28;19908;-62
2021/08/31 06:18:12;;;;;;;;;;;15.90;1.00;;;;;;5090429;28;19939;-62
2021/08/31 06:20:38;;;;;;;;;;;15.90;1.00;;;;;;5118247;22;20400;-66
2021/08/31 06:23:03;;;;;;;;;;;16.00;1.00;;;;;;5107529;28;20057;-65
2021/08/31 06:25:29;;;;;;;;;;;16.00;1.00;;;;;;5547846;22;19968;-66
2021/08/31 06:27:54;;;;;;;;;;;16.00;1.00;;;;;;5104724;28;19977;-66
2021/08/31 06:30:20;;;;;;;;;;;16.00;1.00;;;;;;5102144;28;20002;-65
2021/08/31 06:32:45;;;;;;;;;;;16.00;1.00;;;;;;5090412;28;19934;-65
2021/08/31 06:35:11;;;;;;;;;;;16.10;1.00;;;;;;5091698;28;20324;-66
2021/08/31 06:37:36;;;;;;;;;;;16.10;1.00;;;;;;5090652;28;19909;-67
2021/08/31 06:40:02;;;;;;;;;;;16.20;1.00;;;;;;5091397;28;19927;-67
2021/08/31 06:42:27;;;;;;;;;;;16.20;1.00;;;;;;5090346;28;19927;-66
2021/08/31 06:44:53;;;;;;;;;;;16.30;1.00;;;;;;5090210;28;19912;-67
2021/08/31 06:47:18;;;;;;;;;;;16.50;1.00;;;;;;5089891;28;20587;-66
2021/08/31 06:49:44;;;;;;;;;;;16.60;1.00;;;;;;5087699;28;19912;-67
2021/08/31 06:52:09;;;;;;;;;;;16.70;1.00;;;;;;5080461;28;20006;-65
2021/08/31 06:54:35;;;;;;;;;;;16.90;1.00;;;;;;5089666;28;19961;-66
2021/08/31 06:57:00;;;;;;;;;;;17.10;1.00;;;;;;5211184;22;19927;-66
2021/08/31 06:59:26;;;;;;;;;;;17.50;1.00;;;;;;5116060;27;19912;-67
2021/08/31 07:01:52;;;;;;;;;;;17.80;99.90;;;;;;5110793;27;19927;-65
2021/08/31 07:04:17;;;;;;;;;;;18.20;1.00;;;;;;5111462;28;19908;-67
2021/08/31 07:06:43;;;;;;;;;;;18.50;99.90;;;;;;5110945;28;20628;-66
2021/08/31 07:09:08;;;;;;;;;;;19.50;99.90;;;;;;5111181;28;19908;-67
2021/08/31 07:11:33;;;;;;;;;;;20.70;99.90;;;;;;5111316;28;19907;-65
2021/08/31 07:13:59;;;;;;;;;;;21.30;99.90;;;;;;5111175;28;19994;-66
2021/08/31 07:16:24;;;;;;;;;;;22.90;1.00;;;;;;5112419;28;19908;-67
2021/08/31 07:18:50;;;;;;;;;;;25.70;1.00;;;;;;5073782;28;19916;-67
2021/08/31 07:21:15;;;;;;;;;;;27.10;99.90;;;;;;5085838;28;19946;-65
2021/08/31 07:23:41;;;;;;;;;;;27.00;99.90;;;;;;5083932;28;19919;-64
2021/08/31 07:26:07;;;;;;;;;;;26.30;99.90;;;;;;5076998;28;20058;-66
2021/08/31 07:28:32;;;;;;;;;;;25.50;99.90;;;;;;5082150;28;19959;-66
2021/08/31 07:30:58;;;;;;;;;;;24.50;99.90;;;;;;5097878;28;19908;-65
2021/08/31 07:33:23;;;;;;;;;;;23.60;99.90;;;;;;5092166;28;20007;-67
2021/08/31 07:35:49;;;;;;;;;;;22.90;99.90;;;;;;5074688;28;20007;-67
2021/08/31 07:38:14;;;;;;;;;;;21.90;99.90;;;;;;5076110;28;20049;-65
2021/08/31 07:40:40;;;;;;;;;;;21.40;99.90;;;;;;5091254;28;19927;-66
2021/08/31 07:43:06;;;;;;;;;;;21.00;1.00;;;;;;5084125;28;19923;-67
2021/08/31 07:45:31;;;;;;;;;;;20.90;1.00;;;;;;5092744;28;19974;-66
2021/08/31 07:47:57;;;;;;;;;;;20.90;1.00;;;;;;5094760;28;19908;-66
2021/08/31 07:50:23;;;;;;;;;;;20.90;1.00;;;;;;5081332;28;19919;-66
2021/08/31 07:52:48;;;;;;;;;;;20.60;1.00;;;;;;5068424;28;19909;-66
2021/08/31 07:55:14;;;;;;;;;;;20.20;1.00;;;;;;5068872;28;20395;-67
2021/08/31 07:57:40;;;;;;;;;;;19.80;1.00;;;;;;5077760;28;19938;-65
2021/08/31 08:00:07;;;;;;;;;;;19.60;1.00;;;;;;5080952;28;19951;-66
2021/08/31 08:02:34;;;;;;;;;;;19.50;1.00;;;;;;5068004;28;19920;-66
2021/08/31 08:05:04;;;;;;;;;;;19.50;23.10;;;;;;5075223;28;19920;-67
2021/08/31 08:07:29;;;;;;;;;;;19.60;68.50;;;;;;5082375;28;19913;-68
2021/08/31 08:09:55;;;;;;;;;;;19.70;8.80;;;;;;5089474;28;20315;-66
2021/08/31 08:12:21;;;;;;;;;;;19.70;27.30;;;;;;5088367;28;19908;-66
2021/08/31 08:14:49;;;;;;;;;;;19.70;37.70;;;;;;5088897;28;19909;-65
2021/08/31 08:17:16;;;;;;;;;;;19.50;99.90;;;;;;5088626;28;20356;-66
2021/08/31 08:19:41;;;;;;;;;;;19.30;99.90;;;;;;5075276;28;19961;-66
2021/08/31 08:22:07;;;;;;;;;;;19.10;1.00;;;;;;5087169;28;20206;-66
2021/08/31 08:24:32;;;;;;;;;;;19.00;99.90;;;;;;5089447;28;20007;-66
2021/08/31 08:26:59;;;;;;;;;;;18.90;1.00;;;;;;5080666;28;19966;-67
2021/08/31 08:29:25;;;;;;;;;;;18.80;44.00;;;;;;5083807;28;19917;-66
2021/08/31 08:31:51;;;;;;;;;;;18.70;1.00;;;;;;5075534;28;20306;-67
2021/08/31 08:34:16;;;;;;;;;;;18.70;1.00;;;;;;5491828;22;20288;-63
2021/08/31 08:36:42;;;;;;;;;;;18.70;1.00;;;;;;5107641;28;19920;-67
2021/08/31 08:39:07;;;;;;;;;;;18.90;99.90;;;;;;5096674;28;20291;-66
2021/08/31 08:41:33;;;;;;;;;;;19.00;16.60;;;;;;5140131;22;19951;-67
2021/08/31 08:43:59;;;;;;;;;;;19.20;1.00;;;;;;5097366;28;20342;-65
2021/08/31 08:46:25;;;;;;;;;;;19.30;99.90;;;;;;5100116;28;19907;-66
2021/08/31 08:48:51;;;;;;;;;;;19.70;1.00;;;;;;5099739;28;19920;-69
2021/08/31 08:51:19;;;;;;;;;;;20.00;99.90;;;;;;5083902;28;19981;-66
2021/08/31 08:53:45;;;;;;;;;;;20.30;1.00;;;;;;5084452;28;19919;-67
2021/08/31 08:56:10;;;;;;;;;;;20.60;1.00;;;;;;5078307;28;19916;-66
2021/08/31 08:58:36;;;;;;;;;;;20.90;1.00;;;;;;5080583;28;19915;-66
2021/08/31 09:01:04;;;;;;;;;;;21.30;99.90;;;;;;5083913;28;19960;-65
2021/08/31 09:03:34;;;;;;;;;;;21.40;99.90;;;;;;5077371;28;19912;-66
2021/08/31 09:06:09;;;;;;;;;;;21.40;1.00;;;;;;5079306;28;19916;-66
2021/08/31 09:08:36;;;;;;;;;;;21.50;1.00;;;;;;5080975;28;19962;-66
2021/08/31 09:11:20;;;;;;;;;;;21.60;1.00;;;;;;5083123;28;20360;-67
2021/08/31 09:13:47;;;;;;;;;;;21.90;1.00;;;;;;5082513;28;20007;-66
2021/08/31 09:16:20;;;;;;;;;;;22.80;1.00;;;;;;5081952;28;19928;-66
2021/08/31 09:18:49;;;;;;;;;;;24.00;1.00;;;;;;5082426;28;20011;-65
2021/08/31 09:21:19;;;;;;;;;;;25.60;1.00;;;;;;5081668;28;19923;-67
2021/08/31 09:23:48;;;;;;;;;;;28.40;99.90;;;;;;5079926;28;19929;-67
2021/08/31 09:26:18;;;;;;;;;;;30.90;99.90;;;;;;5081512;28;19908;-66
2021/08/31 09:28:44;;;;;;;;;;;32.20;99.90;;;;;;5081073;28;19955;-65
2021/08/31 09:31:10;;;;;;;;;;;32.40;99.90;;;;;;5064100;28;19956;-66
2021/08/31 09:33:39;;;;;;;;;;;31.80;99.90;;;;;;5077934;28;20007;-67
2021/08/31 09:36:11;;;;;;;;;;;30.90;99.90;;;;;;5080805;28;19908;-66
2021/08/31 09:38:40;;;;;;;;;;;30.60;99.90;;;;;;5080843;28;20328;-66
2021/08/31 09:41:06;;;;;;;;;;;30.80;99.90;;;;;;5080252;28;19920;-66
2021/08/31 09:43:31;;;;;;;;;;;32.40;99.90;;;;;;5078055;28;20535;-66
2021/08/31 09:45:57;;;;;;;;;;;33.90;99.90;;;;;;5081331;28;19916;-66
2021/08/31 09:48:23;;;;;;;;;;;33.00;99.90;;;;;;5079356;28;20365;-67
2021/08/31 09:50:53;;;;;;;;;;;31.30;99.90;;;;;;5082669;28;19977;-66
2021/08/31 09:53:19;;;;;;;;;;;29.80;99.90;;;;;;5080406;28;20320;-65
2021/08/31 09:55:49;;;;;;;;;;;28.60;99.90;;;;;;5079023;28;20331;-66
2021/08/31 09:58:22;;;;;;;;;;;27.60;99.90;;;;;;5080794;28;19912;-66
2021/08/31 10:00:49;;;;;;;;;;;27.10;99.90;;;;;;5083454;28;19912;-66
2021/08/31 10:03:16;;;;;;;;;;;27.10;99.90;;;;;;5079783;28;19912;-66
2021/08/31 10:05:41;;;;;;;;;;;27.70;99.90;;;;;;5078886;28;19916;-66
2021/08/31 10:08:07;;;;;;;;;;;28.70;99.90;;;;;;5079847;28;19920;-66
2021/08/31 10:10:34;;;;;;;;;;;28.80;99.90;;;;;;5078102;28;20412;-67
2021/08/31 10:13:05;;;;;;;;;;;28.30;99.90;;;;;;5079633;28;19915;-64
2021/08/31 10:15:31;;;;;;;;;;;27.70;99.90;;;;;;5080846;28;19973;-67
2021/08/31 10:17:56;;;;;;;;;;;27.60;99.90;;;;;;5078820;28;19924;-65
2021/08/31 10:20:24;;;;;;;;;;;26.80;99.90;;;;;;5080830;28;19919;-66
2021/08/31 10:22:50;;;;;;;;;;;25.50;99.90;;;;;;5080059;28;20254;-65
2021/08/31 10:25:20;;;;;;;;;;;24.40;99.90;;;;;;5081474;28;19919;-65
2021/08/31 10:27:45;;;;;;;;;;;23.60;99.90;;;;;;5080095;28;19913;-65
2021/08/31 10:30:14;;;;;;;;;;;22.90;99.90;;;;;;5081920;28;19908;-66
2021/08/31 10:32:40;;;;;;;;;;;22.30;99.90;;;;;;5079237;28;19928;-65
2021/08/31 10:35:06;;;;;;;;;;;21.80;99.90;;;;;;5080215;28;19909;-64
2021/08/31 10:37:45;;;;;;;;;;;21.40;99.90;;;;;;5082327;28;19924;-65
2021/08/31 10:40:10;;;;;;;;;;;21.30;99.90;;;;;;5080946;28;20050;-66
2021/08/31 10:42:36;;;;;;;;;;;21.00;99.90;;;;;;5078956;28;20348;-65
2021/08/31 10:45:06;;;;;;;;;;;20.90;99.90;;;;;;5083210;28;20489;-66
2021/08/31 10:47:39;;;;;;;;;;;20.60;99.90;;;;;;5080801;28;19927;-66
2021/08/31 10:50:09;;;;;;;;;;;20.50;99.90;;;;;;5077940;28;19931;-67
2021/08/31 10:52:40;;;;;;;;;;;20.30;99.90;;;;;;5079361;28;20282;-66
2021/08/31 10:55:26;;;;;;;;;;;20.10;99.90;;;;;;5085192;28;19912;-65
2021/08/31 10:57:56;;;;;;;;;;;19.90;99.90;;;;;;5082692;28;20392;-66
2021/08/31 11:00:21;;;;;;;;;;;19.90;99.90;;;;;;5101533;28;20474;-67
2021/08/31 11:02:50;;;;;;;;;;;19.80;99.90;;;;;;5109605;28;20006;-67
2021/08/31 11:05:21;;;;;;;;;;;19.80;99.90;;;;;;5110768;28;19908;-67
2021/08/31 11:07:48;;;;;;;;;;;19.90;99.90;;;;;;5109615;28;19908;-67
2021/08/31 11:10:20;;;;;;;;;;;19.90;99.90;;;;;;5089906;28;19912;-67
2021/08/31 11:12:45;;;;;;;;;;;19.90;99.90;;;;;;5090366;28;20356;-66
2021/08/31 11:15:18;;;;;;;;;;;20.10;99.90;;;;;;5090027;28;19919;-67
2021/08/31 11:17:46;;;;;;;;;;;20.20;99.90;;;;;;5089497;28;19912;-66
2021/08/31 11:20:15;;;;;;;;;;;20.50;99.90;;;;;;5089618;28;19952;-66
2021/08/31 11:22:40;;;;;;;;;;;20.50;99.90;;;;;;5089038;28;19912;-67
2021/08/31 11:25:06;;;;;;;;;;;20.80;99.90;;;;;;5071623;28;19915;-67
2021/08/31 11:27:52;;;;;;;;;;;21.20;99.90;;;;;;5089754;28;20381;-67
2021/08/31 11:30:17;;;;;;;;;;;21.70;99.90;;;;;;5083840;28;19926;-67
2021/08/31 11:32:43;;;;;;;;;;;22.20;99.90;;;;;;5089244;28;19912;-65
2021/08/31 11:35:09;;;;;;;;;;;22.50;99.90;;;;;;5090271;28;19946;-68
2021/08/31 11:37:51;;;;;;;;;;;22.90;99.90;;;;;;5088894;28;19957;-67
2021/08/31 11:40:24;;;;;;;;;;;23.30;99.90;;;;;;5089166;28;19923;-67
2021/08/31 11:42:50;;;;;;;;;;;23.70;99.90;;;;;;5088998;28;19913;-67
2021/08/31 11:45:16;;;;;;;;;;;23.90;99.90;;;;;;5089679;28;19916;-65
2021/08/31 11:47:42;;;;;;;;;;;23.80;99.90;;;;;;5089316;28;19909;-65
2021/08/31 11:50:08;;;;;;;;;;;23.70;99.90;;;;;;5083454;28;20345;-65
2021/08/31 11:52:34;;;;;;;;;;;23.60;99.90;;;;;;5067606;28;20003;-65
2021/08/31 11:54:59;;;;;;;;;;;23.60;99.90;;;;;;5068995;28;19918;-66
2021/08/31 11:57:29;;;;;;;;;;;23.50;99.90;;;;;;5069696;28;19952;-66
2021/08/31 11:59:54;;;;;;;;;;;23.40;99.90;;;;;;5086710;28;19912;-66
2021/08/31 12:02:23;;;;;;;;;;;23.30;99.90;;;;;;5108284;28;19918;-65
2021/08/31 12:04:57;;;;;;;;;;;23.00;99.90;;;;;;5110073;28;19911;-65
2021/08/31 12:07:26;;;;;;;;;;;23.10;99.90;;;;;;5109401;28;19916;-66
2021/08/31 12:09:53;;;;;;;;;;;23.00;99.90;;;;;;5110137;28;19908;-66
2021/08/31 12:12:19;;;;;;;;;;;22.80;99.90;;;;;;5091292;28;19912;-65
2021/08/31 12:14:45;;;;;;;;;;;22.90;99.90;;;;;;5089684;28;19912;-66
2021/08/31 12:17:11;;;;;;;;;;;23.00;99.90;;;;;;5089531;28;20059;-66
2021/08/31 12:19:36;;;;;;;;;;;23.20;99.90;;;;;;5089753;28;20086;-65
2021/08/31 12:22:06;;;;;;;;;;;23.30;99.90;;;;;;5088415;28;20619;-66
2021/08/31 12:24:32;;;;;;;;;;;23.40;99.90;;;;;;5070357;28;19934;-66
2021/08/31 12:27:08;;;;;;;;;;;23.50;99.90;;;;;;5089410;28;20043;-65
2021/08/31 12:29:47;;;;;;;;;;;23.60;99.90;;;;;;5089148;28;20407;-66
2021/08/31 12:32:12;;;;;;;;;;;23.60;99.90;;;;;;5069849;28;19932;-66
2021/08/31 12:34:38;;;;;;;;;;;23.50;99.90;;;;;;5089209;28;19917;-65
2021/08/31 12:37:23;;;;;;;;;;;23.20;99.90;;;;;;5088430;28;19909;-65
2021/08/31 12:39:48;;;;;;;;;;;23.30;99.90;;;;;;5089067;28;19912;-66
2021/08/31 12:42:17;;;;;;;;;;;23.40;99.90;;;;;;5090128;28;19969;-66
2021/08/31 12:44:48;;;;;;;;;;;23.40;99.90;;;;;;5092707;28;19962;-65
2021/08/31 12:47:19;;;;;;;;;;;23.40;99.90;;;;;;5092878;28;19951;-66
2021/08/31 12:49:44;;;;;;;;;;;23.40;99.90;;;;;;5093198;28;19908;-66
2021/08/31 12:52:14;;;;;;;;;;;23.60;99.90;;;;;;5091328;28;19957;-66
2021/08/31 12:54:40;;;;;;;;;;;23.90;99.90;;;;;;5092156;28;20049;-65
2021/08/31 12:57:10;;;;;;;;;;;24.50;99.90;;;;;;5092204;28;19955;-66
2021/08/31 12:59:43;;;;;;;;;;;25.10;99.90;;;;;;5077315;28;19923;-66
2021/08/31 13:02:11;;;;;;;;;;;25.70;99.90;;;;;;5111529;28;20329;-66
2021/08/31 13:04:38;;;;;;;;;;;25.90;99.90;;;;;;5113872;28;19961;-66
2021/08/31 13:07:05;;;;;;;;;;;25.80;99.90;;;;;;5112813;28;19923;-67
2021/08/31 13:09:30;;;;;;;;;;;25.60;99.90;;;;;;5113552;28;19915;-67
2021/08/31 13:11:56;;;;;;;;;;;25.60;99.90;;;;;;5112142;28;20237;-65
2021/08/31 13:14:22;;;;;;;;;;;25.40;99.90;;;;;;5113116;28;19946;-66
2021/08/31 13:16:49;;;;;;;;;;;25.20;99.90;;;;;;5111066;28;19916;-64
2021/08/31 13:19:15;;;;;;;;;;;24.70;99.90;;;;;;5112899;28;20279;-66
2021/08/31 13:21:42;;;;;;;;;;;24.40;99.90;;;;;;5111773;28;20465;-64
2021/08/31 13:24:08;;;;;;;;;;;24.40;99.90;;;;;;5103338;28;19912;-66
2021/08/31 13:26:36;;;;;;;;;;;24.50;99.90;;;;;;5092136;28;19912;-65
2021/08/31 13:29:02;;;;;;;;;;;24.60;99.90;;;;;;5073513;28;19916;-66
2021/08/31 13:31:27;;;;;;;;;;;24.70;99.90;;;;;;5091945;28;19949;-67
2021/08/31 13:33:53;;;;;;;;;;;24.80;99.90;;;;;;5091219;28;19908;-65
2021/08/31 13:36:19;;;;;;;;;;;24.50;99.90;;;;;;5092131;28;20067;-67
2021/08/31 13:38:44;;;;;;;;;;;24.20;99.90;;;;;;5212103;22;20069;-67
2021/08/31 13:41:10;;;;;;;;;;;24.20;99.90;;;;;;5112628;28;19980;-65
2021/08/31 13:43:36;;;;;;;;;;;24.20;99.90;;;;;;5111243;28;20263;-66
2021/08/31 13:46:02;;;;;;;;;;;24.30;99.90;;;;;;5112066;28;19915;-66
2021/08/31 13:48:28;;;;;;;;;;;24.30;99.90;;;;;;5111250;28;19912;-66
2021/08/31 13:50:54;;;;;;;;;;;24.20;99.90;;;;;;5111708;28;19923;-65
2021/08/31 13:53:19;;;;;;;;;;;24.10;99.90;;;;;;5109144;28;19931;-65
2021/08/31 13:55:45;;;;;;;;;;;23.90;99.90;;;;;;5111185;28;19935;-65
2021/08/31 13:58:13;;;;;;;;;;;23.60;99.90;;;;;;5111410;28;20501;-67
2021/08/31 14:00:39;;;;;;;;;;;23.50;99.90;;;;;;5111444;28;20368;-66
2021/08/31 14:03:04;;;;;;;;;;;23.10;99.90;;;;;;5110141;28;19919;-66
2021/08/31 14:05:30;;;;;;;;;;;22.90;99.90;;;;;;5111347;28;19965;-66
2021/08/31 14:07:56;;;;;;;;;;;22.70;99.90;;;;;;5110463;28;20372;-66
2021/08/31 14:10:21;;;;;;;;;;;22.60;99.90;;;;;;5111368;28;19911;-65
2021/08/31 14:12:46;;;;;;;;;;;22.40;99.90;;;;;;5110583;28;19943;-66
2021/08/31 14:15:12;;;;;;;;;;;22.40;99.90;;;;;;5110806;28;20627;-66
2021/08/31 14:17:38;;;;;;;;;;;22.20;99.90;;;;;;5110688;28;19953;-66
2021/08/31 14:20:04;;;;;;;;;;;22.10;99.90;;;;;;5111153;28;19911;-67